Time;durP1;ratioP1;P1;durP2;ratioP2;P2;SDS_P1;SDS_P2;PMS_P1;PMS_P2;Temp;Humidity;BMP_temperature;BMP_pressure;BME280_temperature;BME280_humidity;BME280_pressure;Samples;Min_cycle;Max_cycle;Signal;HPM_P1;HPM_P2
2023/02/17 00:00:46;;;;;;;;;;;;;;;22.65;34.37;96035.28;4979551;28;1151;-70
2023/02/17 00:03:11;;;;;;;;;;;;;;;22.64;34.35;96041.66;4992782;28;1222;-70
2023/02/17 00:05:38;;;;;;;;;;;;;;;22.65;34.45;96038.81;4980687;28;1465;-70
2023/02/17 00:08:03;;;;;;;;;;;;;;;22.67;34.39;96030.59;4990798;28;1969;-70
2023/02/17 00:10:28;;;;;;;;;;;;;;;22.65;34.51;96032.63;5009887;28;1364;-69
2023/02/17 00:12:53;;;;;;;;;;;;;;;22.68;34.35;96035.75;4992953;28;1370;-70
2023/02/17 00:15:19;;;;;;;;;;;;;;;22.73;34.34;96028.97;4983078;28;1223;-69
2023/02/17 00:17:44;;;;;;;;;;;;;;;22.73;34.26;96027.13;4980779;28;1136;-70
2023/02/17 00:20:10;;;;;;;;;;;;;;;22.68;34.26;96019.69;4976289;28;1280;-70
2023/02/17 00:22:35;;;;;;;;;;;;;;;22.62;34.32;96023.13;4981993;28;1167;-69
2023/02/17 00:25:00;;;;;;;;;;;;;;;22.61;34.68;96031.34;4998981;28;1196;-70
2023/02/17 00:27:25;;;;;;;;;;;;;;;22.66;34.55;96021.72;4983112;28;1922;-70
2023/02/17 00:29:51;;;;;;;;;;;;;;;22.60;34.29;96024.38;4987446;28;1164;-70
2023/02/17 00:32:16;;;;;;;;;;;;;;;22.62;34.54;96015.09;4995095;28;1252;-69
2023/02/17 00:34:41;;;;;;;;;;;;;;;22.60;34.64;96017.16;4991371;28;1302;-70
2023/02/17 00:37:07;;;;;;;;;;;;;;;22.60;34.62;96006.47;4992892;28;1208;-69
2023/02/17 00:39:32;;;;;;;;;;;;;;;22.63;34.51;96014.09;4977081;28;1370;-69
2023/02/17 00:41:58;;;;;;;;;;;;;;;22.64;34.62;96007.72;4992633;28;1187;-70
2023/02/17 00:44:23;;;;;;;;;;;;;;;22.62;34.86;96004.41;4991194;28;1211;-69
2023/02/17 00:46:49;;;;;;;;;;;;;;;22.65;34.80;96003.19;4981773;28;1902;-70
2023/02/17 00:49:15;;;;;;;;;;;;;;;22.67;34.67;96004.66;5006266;28;1378;-69
2023/02/17 00:51:40;;;;;;;;;;;;;;;22.65;34.81;96009.38;4985518;28;1013;-71
2023/02/17 00:54:06;;;;;;;;;;;;;;;22.65;34.93;96001.38;5010271;28;1310;-69
2023/02/17 00:56:31;;;;;;;;;;;;;;;22.67;34.88;96003.84;4992012;28;1233;-69
2023/02/17 00:58:56;;;;;;;;;;;;;;;22.67;35.05;96010.00;4993118;28;1188;-70
2023/02/17 01:01:22;;;;;;;;;;;;;;;22.64;34.92;96005.03;5002037;28;1185;-77
2023/02/17 01:03:47;;;;;;;;;;;;;;;22.62;35.04;95996.38;4993824;23;3670;-67
2023/02/17 01:06:24;;;;;;;;;;;;;;;22.67;35.14;96006.50;4994429;28;1329;-67
2023/02/17 01:08:50;;;;;;;;;;;;;;;22.67;35.13;96003.84;4991755;28;1972;-67
2023/02/17 01:11:18;;;;;;;;;;;;;;;22.64;35.12;96009.56;4996623;28;1214;-67
2023/02/17 01:13:43;;;;;;;;;;;;;;;22.62;35.45;95993.69;4999296;28;1349;-67
2023/02/17 01:16:19;;;;;;;;;;;;;;;22.67;35.19;95996.63;5012776;28;1305;-67
2023/02/17 01:18:44;;;;;;;;;;;;;;;22.64;35.37;95991.66;4995061;28;931;-67
2023/02/17 01:21:16;;;;;;;;;;;;;;;22.66;35.29;95986.97;4983639;28;868;-67
2023/02/17 01:23:42;;;;;;;;;;;;;;;22.67;35.29;95993.13;4975631;28;857;-67
2023/02/17 01:26:12;;;;;;;;;;;;;;;22.70;35.39;95995.41;4980559;28;1185;-67
2023/02/17 01:28:37;;;;;;;;;;;;;;;22.66;35.34;95986.97;4983969;28;1975;-67
2023/02/17 01:31:06;;;;;;;;;;;;;;;22.67;35.66;95988.59;5014555;28;855;-67
2023/02/17 01:33:31;;;;;;;;;;;;;;;22.67;35.52;95971.72;5014310;28;848;-67
2023/02/17 01:36:00;;;;;;;;;;;;;;;22.67;35.62;95977.09;5009365;28;1071;-67
2023/02/17 01:38:25;;;;;;;;;;;;;;;22.70;35.62;95979.38;4994395;28;1004;-68
2023/02/17 01:40:51;;;;;;;;;;;;;;;22.68;35.74;95979.56;4994595;28;880;-67
2023/02/17 01:43:16;;;;;;;;;;;;;;;22.72;35.70;95979.19;4983848;28;1226;-68
2023/02/17 01:45:49;;;;;;;;;;;;;;;22.69;35.70;95977.72;4984383;28;1104;-67
2023/02/17 01:48:17;;;;;;;;;;;;;;;22.72;35.73;95979.19;4978201;28;1914;-67
2023/02/17 01:50:44;;;;;;;;;;;;;;;22.67;35.68;95985.94;4994633;28;1136;-67
2023/02/17 01:53:12;;;;;;;;;;;;;;;22.71;35.82;95986.34;4995893;28;1357;-67
2023/02/17 01:55:39;;;;;;;;;;;;;;;22.72;35.57;95979.19;4993819;28;1014;-66
2023/02/17 01:58:05;;;;;;;;;;;;;;;22.70;35.46;95994.59;4993317;28;1133;-67
2023/02/17 02:00:32;;;;;;;;;;;;;;;22.66;35.76;95978.94;4984578;28;1000;-67
2023/02/17 02:02:58;;;;;;;;;;;;;;;22.68;35.84;95989.44;4992314;28;1280;-67
2023/02/17 02:05:23;;;;;;;;;;;;;;;22.68;35.83;95979.56;5012350;28;1176;-68
2023/02/17 02:07:49;;;;;;;;;;;;;;;22.70;35.84;95981.22;4989262;28;1914;-69
2023/02/17 02:10:15;;;;;;;;;;;;;;;22.43;36.02;95949.75;4986029;28;1288;-68
2023/02/17 02:12:41;;;;;;;;;;;;;;;22.66;36.02;95976.25;5010712;28;1428;-68
2023/02/17 02:15:08;;;;;;;;;;;;;;;22.66;35.88;95978.94;5000602;28;1334;-68
2023/02/17 02:17:52;;;;;;;;;;;;;;;22.70;35.85;95973.19;5014042;28;859;-67
2023/02/17 02:20:17;;;;;;;;;;;;;;;22.70;35.78;95970.53;5001030;28;1128;-67
2023/02/17 02:23:01;;;;;;;;;;;;;;;22.72;35.69;95971.16;4984031;28;1182;-77
2023/02/17 02:25:26;;;;;;;;;;;;;;;22.72;35.70;95976.50;5012792;28;1310;-77
2023/02/17 02:27:56;;;;;;;;;;;;;;;22.72;36.11;95974.66;4995514;28;1906;-78
2023/02/17 02:30:34;;;;;;;;;;;;;;;22.72;35.75;95980.00;5007512;28;1472;-78
2023/02/17 02:33:07;;;;;;;;;;;;;;;22.72;35.99;95973.84;4985569;28;1139;-78
2023/02/17 02:35:32;;;;;;;;;;;;;;;22.70;35.87;95976.69;4996301;28;1045;-79
2023/02/17 02:38:05;;;;;;;;;;;;;;;22.73;36.01;95972.81;5008671;28;1441;-79
2023/02/17 02:40:33;;;;;;;;;;;;;;;22.76;35.69;95970.56;5001822;28;1167;-79
2023/02/17 02:43:00;;;;;;;;;;;;;;;22.76;35.89;95969.72;4976406;28;1100;-79
2023/02/17 02:45:25;;;;;;;;;;;;;;;22.72;35.98;95973.84;4987037;28;1187;-78
2023/02/17 02:47:52;;;;;;;;;;;;;;;22.71;35.81;95988.22;4982898;28;1957;-79
2023/02/17 02:50:25;;;;;;;;;;;;;;;22.70;35.87;95981.22;5011908;28;1490;-73
2023/02/17 02:52:57;;;;;;;;;;;;;;;22.72;36.02;95974.66;4993275;28;1322;-73
2023/02/17 02:55:41;;;;;;;;;;;;;;;22.72;35.77;95982.69;4988758;28;1153;-73
2023/02/17 02:58:26;;;;;;;;;;;;;;;22.73;35.74;95980.81;4990725;28;1112;-73
2023/02/17 03:00:52;;;;;;;;;;;;;;;22.71;35.89;95980.19;4975952;28;1194;-71
2023/02/17 03:03:18;;;;;;;;;;;;;;;22.71;36.10;95981.00;4993567;28;1423;-70
2023/02/17 03:06:01;;;;;;;;;;;;;;;22.74;36.22;95977.13;5010230;28;1331;-70
2023/02/17 03:08:35;;;;;;;;;;;;;;;22.71;36.02;95977.50;4971916;28;1981;-72
2023/02/17 03:11:01;;;;;;;;;;;;;;;22.72;36.36;95976.50;4993125;28;1037;-72
2023/02/17 03:13:27;;;;;;;;;;;;;;;22.71;36.04;95983.69;4993366;28;1136;-72
2023/02/17 03:15:52;;;;;;;;;;;;;;;22.74;36.12;95977.13;4993886;28;1433;-72
2023/02/17 03:18:17;;;;;;;;;;;;;;;22.75;36.02;95976.13;4987607;28;1210;-73
2023/02/17 03:20:55;;;;;;;;;;;;;;;22.73;36.27;95972.81;5002640;28;1319;-74
2023/02/17 03:23:20;;;;;;;;;;;;;;;22.72;36.13;95984.53;4976247;28;1140;-73
2023/02/17 03:25:46;;;;;;;;;;;;;;;22.70;36.19;95975.88;5004841;28;1313;-74
2023/02/17 03:28:12;;;;;;;;;;;;;;;22.76;35.82;95986.59;4989882;28;1965;-73
2023/02/17 03:30:37;;;;;;;;;;;;;;;22.74;36.09;95977.97;4982622;28;1172;-73
2023/02/17 03:33:02;;;;;;;;;;;;;;;22.74;36.09;95977.13;5009016;28;1342;-73
2023/02/17 03:35:27;;;;;;;;;;;;;;;22.73;36.16;95986.19;4996466;28;1215;-73
2023/02/17 03:37:53;;;;;;;;;;;;;;;22.73;36.09;95981.66;4996139;28;1108;-73
2023/02/17 03:40:18;;;;;;;;;;;;;;;22.70;36.04;95983.91;5011150;28;1424;-72
2023/02/17 03:42:43;;;;;;;;;;;;;;;22.72;36.31;95989.88;4986430;28;1195;-72
2023/02/17 03:45:08;;;;;;;;;;;;;;;22.79;36.09;95985.38;5010961;28;1362;-72
2023/02/17 03:47:34;;;;;;;;;;;;;;;22.76;36.26;95975.09;4995900;28;1969;-72
2023/02/17 03:49:59;;;;;;;;;;;;;;;22.73;36.35;95975.47;4997553;28;1342;-73
2023/02/17 03:52:24;;;;;;;;;;;;;;;22.75;36.36;95970.78;4990106;28;1143;-72
2023/02/17 03:54:51;;;;;;;;;;;;;;;22.75;36.14;95981.47;4992527;28;1085;-73
2023/02/17 03:57:16;;;;;;;;;;;;;;;22.74;36.17;95985.16;4997351;28;1464;-73
2023/02/17 03:59:41;;;;;;;;;;;;;;;22.70;36.47;95978.53;4992200;28;982;-73
2023/02/17 04:02:07;;;;;;;;;;;;;;;22.70;36.49;95973.19;4982488;28;1202;-73
2023/02/17 04:04:32;;;;;;;;;;;;;;;23.19;36.17;95970.41;4996750;28;1378;-74
2023/02/17 04:06:57;;;;;;;;;;;;;;;23.32;34.88;95967.00;4983232;28;1910;-73
2023/02/17 04:09:22;;;;;;;;;;;;;;;23.56;34.54;95971.84;4995437;28;986;-73
2023/02/17 04:11:48;;;;;;;;;;;;;;;23.72;34.17;95972.53;4993659;28;1136;-74
2023/02/17 04:14:13;;;;;;;;;;;;;;;23.66;34.26;95970.63;4986909;28;1335;-74
2023/02/17 04:16:38;;;;;;;;;;;;;;;23.36;30.39;95976.25;4985392;28;1233;-73
2023/02/17 04:19:04;;;;;;;;;;;;;;;20.00;29.06;95974.72;4994712;28;1131;-73
2023/02/17 04:21:30;;;;;;;;;;;;;;;17.03;28.50;95973.66;4995545;28;1136;-73
2023/02/17 04:23:55;;;;;;;;;;;;;;;15.82;28.95;95975.31;4995805;28;1040;-73
2023/02/17 04:26:21;;;;;;;;;;;;;;;15.41;29.14;95985.50;4992983;28;1128;-73
2023/02/17 04:28:46;;;;;;;;;;;;;;;14.72;28.91;95984.19;4984302;28;1902;-72
2023/02/17 04:31:11;;;;;;;;;;;;;;;14.06;30.41;95983.19;4991986;28;1009;-73
2023/02/17 04:33:36;;;;;;;;;;;;;;;14.16;30.88;95984.00;4982350;28;1128;-73
2023/02/17 04:36:02;;;;;;;;;;;;;;;14.28;30.28;95983.84;4994061;28;1224;-73
2023/02/17 04:38:28;;;;;;;;;;;;;;;14.20;30.06;95968.72;4969720;28;1152;-73
2023/02/17 04:40:54;;;;;;;;;;;;;;;13.95;29.75;95978.91;4995127;28;1084;-72
2023/02/17 04:43:20;;;;;;;;;;;;;;;13.91;29.73;95989.88;4976882;28;1305;-73
2023/02/17 04:45:45;;;;;;;;;;;;;;;13.66;29.94;95986.84;4988430;28;1061;-72
2023/02/17 04:48:11;;;;;;;;;;;;;;;13.42;30.34;95976.66;4995040;28;1954;-73
2023/02/17 04:50:37;;;;;;;;;;;;;;;13.38;30.28;95987.63;4988793;28;1176;-73
2023/02/17 04:53:02;;;;;;;;;;;;;;;13.90;30.06;95981.13;4999226;28;1235;-73
2023/02/17 04:55:28;;;;;;;;;;;;;;;13.78;29.91;95994.59;4994912;28;1006;-73
2023/02/17 04:57:53;;;;;;;;;;;;;;;13.69;31.33;95986.53;5010243;28;1357;-72
2023/02/17 05:00:19;;;;;;;;;;;;;;;14.51;31.30;95995.72;4990063;28;1127;-70
2023/02/17 05:02:44;;;;;;;;;;;;;;;16.86;30.40;95989.50;4989894;28;1299;-72
2023/02/17 05:05:13;;;;;;;;;;;;;;;18.00;29.89;95995.31;5004586;28;1411;-73
2023/02/17 05:07:39;;;;;;;;;;;;;;;18.58;29.29;95992.44;4995484;28;1902;-72
2023/02/17 05:10:04;;;;;;;;;;;;;;;19.10;29.13;96005.31;5001158;28;1385;-74
2023/02/17 05:12:29;;;;;;;;;;;;;;;16.89;28.23;96008.72;5004728;28;1118;-74
2023/02/17 05:14:55;;;;;;;;;;;;;;;17.28;28.36;96012.56;5014508;28;857;-73
2023/02/17 05:17:20;;;;;;;;;;;;;;;18.31;28.86;96006.13;5005734;28;793;-72
2023/02/17 05:19:45;;;;;;;;;;;;;;;18.77;28.92;96001.09;4990251;28;1036;-73
2023/02/17 05:22:10;;;;;;;;;;;;;;;19.04;28.89;96014.00;4993411;28;1364;-72
2023/02/17 05:24:36;;;;;;;;;;;;;;;19.26;28.78;96016.88;4984641;28;1115;-73
2023/02/17 05:27:01;;;;;;;;;;;;;;;19.34;29.12;96014.19;4994400;28;1894;-72
2023/02/17 05:29:26;;;;;;;;;;;;;;;19.43;29.29;96018.47;4994660;28;888;-72
2023/02/17 05:31:52;;;;;;;;;;;;;;;19.54;29.16;96015.44;4994277;28;840;-72
2023/02/17 05:34:17;;;;;;;;;;;;;;;19.67;29.29;96019.41;5004704;28;1481;-72
2023/02/17 05:36:42;;;;;;;;;;;;;;;19.73;29.28;96014.19;4989125;28;1353;-72
2023/02/17 05:39:07;;;;;;;;;;;;;;;19.87;29.25;96015.28;4994484;28;787;-72
2023/02/17 05:41:33;;;;;;;;;;;;;;;19.89;29.20;96023.91;4993156;28;1303;-72
2023/02/17 05:43:58;;;;;;;;;;;;;;;19.97;29.41;96037.16;4994366;28;882;-71
2023/02/17 05:46:23;;;;;;;;;;;;;;;19.99;29.41;96027.19;4984539;28;1052;-72
2023/02/17 05:48:48;;;;;;;;;;;;;;;20.05;29.44;96040.81;4993716;28;1914;-72
2023/02/17 05:51:16;;;;;;;;;;;;;;;20.11;29.29;96027.59;5008968;28;1318;-72
2023/02/17 05:53:41;;;;;;;;;;;;;;;20.17;29.26;96036.72;5008946;28;1374;-72
2023/02/17 05:56:06;;;;;;;;;;;;;;;20.23;29.45;96033.34;4993976;28;790;-72
2023/02/17 05:58:32;;;;;;;;;;;;;;;20.24;29.38;96040.34;4983521;28;1094;-73
2023/02/17 06:00:57;;;;;;;;;;;;;;;20.30;29.47;96036.13;4994026;28;868;-73
2023/02/17 06:03:22;;;;;;;;;;;;;;;20.36;29.47;96030.91;4992249;28;1697;-72
2023/02/17 06:05:47;;;;;;;;;;;;;;;20.41;29.26;96027.72;4994184;28;857;-73
2023/02/17 06:08:13;;;;;;;;;;;;;;;20.43;29.41;96037.19;4989546;28;1974;-73
2023/02/17 06:10:38;;;;;;;;;;;;;;;20.45;29.53;96040.50;4987054;28;1349;-73
2023/02/17 06:13:03;;;;;;;;;;;;;;;20.56;29.26;96041.09;4993661;28;920;-73
2023/02/17 06:15:29;;;;;;;;;;;;;;;20.54;29.47;96045.78;4993601;28;924;-73
2023/02/17 06:17:54;;;;;;;;;;;;;;;20.59;29.26;96041.56;5008622;28;1355;-73
2023/02/17 06:20:20;;;;;;;;;;;;;;;20.61;29.44;96046.72;4983945;28;1137;-72
2023/02/17 06:22:45;;;;;;;;;;;;;;;20.62;29.56;96046.53;4993316;28;1049;-72
2023/02/17 06:25:10;;;;;;;;;;;;;;;20.63;29.65;96042.88;4993778;28;853;-73
2023/02/17 06:27:35;;;;;;;;;;;;;;;20.68;29.48;96045.00;4993446;28;1906;-73
2023/02/17 06:30:01;;;;;;;;;;;;;;;20.73;29.68;96041.78;5009008;28;1355;-73
2023/02/17 06:32:26;;;;;;;;;;;;;;;20.77;29.41;96046.56;4983865;28;1032;-73
2023/02/17 06:34:51;;;;;;;;;;;;;;;20.78;29.43;96056.25;4992157;28;1311;-73
2023/02/17 06:37:17;;;;;;;;;;;;;;;20.83;29.45;96048.53;4992060;28;1220;-72
2023/02/17 06:39:42;;;;;;;;;;;;;;;20.83;29.50;96059.19;4993600;28;872;-72
2023/02/17 06:42:07;;;;;;;;;;;;;;;20.88;29.50;96056.78;4993391;28;938;-72
2023/02/17 06:44:33;;;;;;;;;;;;;;;20.91;29.39;96054.78;4983863;28;1010;-73
2023/02/17 06:46:58;;;;;;;;;;;;;;;20.94;29.46;96055.22;4993422;28;956;-73
2023/02/17 06:49:23;;;;;;;;;;;;;;;20.98;29.77;96061.06;4993328;28;1894;-73
2023/02/17 06:51:48;;;;;;;;;;;;;;;21.01;29.54;96060.69;4993419;28;879;-73
2023/02/17 06:54:14;;;;;;;;;;;;;;;21.02;29.50;96057.81;4986412;28;1088;-73
2023/02/17 06:56:39;;;;;;;;;;;;;;;21.06;29.43;96067.13;5005393;28;1306;-73
2023/02/17 06:59:04;;;;;;;;;;;;;;;21.07;29.62;96065.28;4993225;28;853;-72
2023/02/17 07:01:30;;;;;;;;;;;;;;;21.08;29.59;96058.94;4993270;28;876;-73
2023/02/17 07:03:55;;;;;;;;;;;;;;;21.10;29.61;96067.59;4992923;28;1268;-72
2023/02/17 07:06:22;;;;;;;;;;;;;;;21.14;29.49;96068.88;4983343;28;960;-73
2023/02/17 07:08:47;;;;;;;;;;;;;;;21.18;29.67;96062.16;5008638;28;1910;-72
2023/02/17 07:11:13;;;;;;;;;;;;;;;21.17;29.60;96071.16;5012087;28;1167;-72
2023/02/17 07:13:39;;;;;;;;;;;;;;;21.21;29.60;96072.47;5012151;28;1215;-72
2023/02/17 07:16:05;;;;;;;;;;;;;;;21.21;29.52;96072.47;4997146;28;801;-72
2023/02/17 07:18:30;;;;;;;;;;;;;;;21.23;29.41;96070.47;4987331;28;959;-72
2023/02/17 07:20:56;;;;;;;;;;;;;;;21.24;29.56;96079.28;4997069;28;906;-72
2023/02/17 07:23:21;;;;;;;;;;;;;;;21.24;29.70;96079.28;4997277;28;877;-72
2023/02/17 07:25:46;;;;;;;;;;;;;;;21.27;29.59;96077.06;4995771;28;1757;-72
2023/02/17 07:28:12;;;;;;;;;;;;;;;21.31;29.48;96083.69;4991772;28;1952;-72
2023/02/17 07:30:41;;;;;;;;;;;;;;;21.36;29.47;96074.31;5006784;28;1298;-72
2023/02/17 07:33:06;;;;;;;;;;;;;;;21.40;29.71;96083.63;4996799;28;802;-72
2023/02/17 07:35:32;;;;;;;;;;;;;;;21.43;29.48;96083.25;4995567;28;1184;-72
2023/02/17 07:37:57;;;;;;;;;;;;;;;21.44;29.57;96080.44;5011696;28;1293;-72
2023/02/17 07:40:23;;;;;;;;;;;;;;;21.47;29.38;96081.91;4986711;28;1180;-73
2023/02/17 07:42:48;;;;;;;;;;;;;;;21.48;29.41;96088.88;4995480;28;1375;-72
2023/02/17 07:45:14;;;;;;;;;;;;;;;21.52;29.47;96090.19;4996366;28;865;-72
2023/02/17 07:47:39;;;;;;;;;;;;;;;21.53;29.26;96081.16;4996477;28;1945;-72
2023/02/17 07:50:05;;;;;;;;;;;;;;;21.52;29.55;96096.34;4996198;28;932;-72
2023/02/17 07:52:30;;;;;;;;;;;;;;;21.54;29.39;96082.78;4986402;28;1078;-73
2023/02/17 07:54:55;;;;;;;;;;;;;;;21.55;29.54;96085.28;4996077;28;914;-73
2023/02/17 07:57:20;;;;;;;;;;;;;;;21.57;29.48;96079.75;4996121;28;992;-73
2023/02/17 07:59:46;;;;;;;;;;;;;;;21.61;29.44;96086.41;4996443;28;806;-73
2023/02/17 08:02:12;;;;;;;;;;;;;;;21.66;29.24;96081.34;4991259;28;1072;-73
2023/02/17 08:04:37;;;;;;;;;;;;;;;21.69;29.41;96080.13;4990976;28;1193;-73
2023/02/17 08:07:02;;;;;;;;;;;;;;;21.66;29.36;96081.34;4996025;28;731;-73
2023/02/17 08:15:00;;;;;;;;;;;;;;;21.79;29.31;96092.16;4986140;28;1059;-73
2023/02/17 08:17:26;;;;;;;;;;;;;;;21.84;29.04;96088.13;4996061;28;866;-73
2023/02/17 08:19:51;;;;;;;;;;;;;;;21.80;29.33;96087.69;4995660;28;971;-73
2023/02/17 08:22:16;;;;;;;;;;;;;;;21.82;29.17;96079.47;4995947;28;866;-73
2023/02/17 08:24:41;;;;;;;;;;;;;;;21.88;28.99;96084.03;5006235;28;1381;-74
2023/02/17 08:27:07;;;;;;;;;;;;;;;21.87;29.19;96082.41;4990813;28;1898;-74
2023/02/17 08:29:32;;;;;;;;;;;;;;;21.88;29.18;96084.88;4995883;28;852;-74
2023/02/17 08:31:58;;;;;;;;;;;;;;;21.87;29.41;96082.41;4996065;28;932;-74
2023/02/17 08:34:23;;;;;;;;;;;;;;;21.89;29.33;96078.53;4996060;28;945;-74
2023/02/17 08:36:48;;;;;;;;;;;;;;;21.96;29.17;96083.94;4984907;28;1388;-74
2023/02/17 08:39:14;;;;;;;;;;;;;;;21.93;29.20;96078.97;4994580;28;1208;-74
2023/02/17 08:41:40;;;;;;;;;;;;;;;21.98;29.40;96074.72;4995729;28;805;-74
2023/02/17 08:44:07;;;;;;;;;;;;;;;22.05;29.10;96068.63;4995912;28;926;-72
2023/02/17 08:46:34;;;;;;;;;;;;;;;22.05;28.95;96074.78;4995585;28;929;-74
2023/02/17 08:48:59;;;;;;;;;;;;;;;22.05;29.16;96069.44;4985722;28;1907;-74
2023/02/17 08:51:25;;;;;;;;;;;;;;;22.07;29.07;96067.41;4995292;28;885;-73
2023/02/17 08:53:53;;;;;;;;;;;;;;;22.16;28.97;96071.63;4995280;28;921;-73
2023/02/17 08:56:18;;;;;;;;;;;;;;;21.98;28.96;96052.53;4995770;28;951;-73
2023/02/17 08:58:44;;;;;;;;;;;;;;;22.07;29.04;96078.09;4990772;28;1024;-73
2023/02/17 09:01:09;;;;;;;;;;;;;;;22.07;29.11;96069.28;4990190;28;1193;-73
2023/02/17 09:03:36;;;;;;;;;;;;;;;22.06;29.22;96078.28;4994936;28;1287;-72
2023/02/17 09:06:02;;;;;;;;;;;;;;;22.00;29.10;96061.19;4995238;28;852;-72
2023/02/17 09:08:27;;;;;;;;;;;;;;;22.06;29.42;96064.91;4994995;28;1969;-74
2023/02/17 09:10:52;;;;;;;;;;;;;;;22.09;29.21;96070.75;4985802;28;1072;-74
2023/02/17 09:13:18;;;;;;;;;;;;;;;22.10;29.10;96067.03;4994978;28;1022;-73
2023/02/17 09:15:44;;;;;;;;;;;;;;;22.18;28.92;96064.28;4995141;28;797;-74
2023/02/17 09:18:09;;;;;;;;;;;;;;;22.07;29.25;96064.75;4995464;28;801;-75
2023/02/17 09:20:35;;;;;;;;;;;;;;;22.09;29.18;96059.22;4995539;28;789;-74
2023/02/17 09:23:00;;;;;;;;;;;;;;;22.10;29.11;96064.38;4988587;28;1075;-73
2023/02/17 09:25:25;;;;;;;;;;;;;;;22.15;29.05;96064.63;4995132;28;813;-74
2023/02/17 09:27:50;;;;;;;;;;;;;;;22.14;29.26;96060.31;4994781;28;1898;-74
2023/02/17 09:30:16;;;;;;;;;;;;;;;22.20;29.08;96059.59;4994740;28;990;-74
2023/02/17 09:32:41;;;;;;;;;;;;;;;22.17;29.19;96057.28;4990163;28;1018;-74
2023/02/17 09:35:07;;;;;;;;;;;;;;;22.17;29.01;96051.94;5004322;28;1279;-73
2023/02/17 09:37:32;;;;;;;;;;;;;;;22.22;28.97;96051.34;5009394;28;1189;-73
2023/02/17 09:39:57;;;;;;;;;;;;;;;22.21;29.17;96049.72;4994604;28;932;-74
2023/02/17 09:42:24;;;;;;;;;;;;;;;22.18;29.23;96048.25;4994700;28;813;-74
2023/02/17 09:44:59;;;;;;;;;;;;;;;22.11;29.33;96049.97;4985033;28;1046;-74
2023/02/17 09:47:50;;;;;;;;;;;;;;;22.16;29.30;96042.22;4994120;28;1964;-74
2023/02/17 09:50:22;;;;;;;;;;;;;;;22.14;29.13;96043.44;4979050;28;1283;-74
2023/02/17 09:52:55;;;;;;;;;;;;;;;22.14;29.34;96044.28;4993026;28;1372;-74
2023/02/17 09:55:23;;;;;;;;;;;;;;;22.08;29.17;96012.94;4992552;28;773;-73
2023/02/17 09:57:57;;;;;;;;;;;;;;;22.23;29.14;96035.16;4988158;28;1112;-73
2023/02/17 10:00:34;;;;;;;;;;;;;;;22.32;29.17;96040.38;4994029;28;869;-73
2023/02/17 10:03:02;;;;;;;;;;;;;;;22.21;29.16;96039.84;4993589;28;1315;-73
2023/02/17 10:05:31;;;;;;;;;;;;;;;22.25;29.04;96036.78;4992555;28;1195;-73
2023/02/17 10:08:00;;;;;;;;;;;;;;;22.24;29.17;96027.94;4983866;28;1963;-73
2023/02/17 10:10:37;;;;;;;;;;;;;;;22.21;28.97;96026.47;4993929;28;837;-73
2023/02/17 10:13:04;;;;;;;;;;;;;;;22.31;29.05;96009.28;4993705;28;919;-73
2023/02/17 10:15:34;;;;;;;;;;;;;;;22.26;29.11;96025.09;4993442;28;1162;-73
2023/02/17 10:17:59;;;;;;;;;;;;;;;22.24;29.08;96019.94;4992703;28;956;-72
2023/02/17 10:20:29;;;;;;;;;;;;;;;22.16;29.41;96023.50;4985072;28;1141;-72
2023/02/17 10:23:00;;;;;;;;;;;;;;;22.13;29.37;96007.88;4993535;28;893;-72
2023/02/17 10:25:53;;;;;;;;;;;;;;;22.18;29.44;96005.47;5008438;28;1210;-72
2023/02/17 10:28:30;;;;;;;;;;;;;;;22.11;29.30;96009.06;4993153;28;1910;-73
2023/02/17 10:31:04;;;;;;;;;;;;;;;22.12;29.44;96006.22;4982226;28;1300;-73
2023/02/17 10:33:36;;;;;;;;;;;;;;;22.11;29.48;95993.03;4993359;28;913;-72
2023/02/17 10:36:28;;;;;;;;;;;;;;;22.15;29.47;95981.78;4993478;28;844;-72
2023/02/17 10:38:58;;;;;;;;;;;;;;;22.06;29.70;95982.94;4991079;28;1117;-73
2023/02/17 10:41:31;;;;;;;;;;;;;;;22.09;29.66;95982.53;4987095;28;1103;-73
2023/02/17 10:43:57;;;;;;;;;;;;;;;22.15;29.58;95973.75;4992430;28;982;-73
2023/02/17 10:46:26;;;;;;;;;;;;;;;22.14;29.47;95972.13;4993174;28;927;-73
2023/02/17 10:48:53;;;;;;;;;;;;;;;22.11;29.66;95966.31;4993099;28;1895;-73
2023/02/17 10:51:23;;;;;;;;;;;;;;;22.13;29.55;95970.44;5008161;28;1405;-72
2023/02/17 10:54:09;;;;;;;;;;;;;;;22.17;29.50;95966.41;4983430;28;1043;-72
2023/02/17 10:56:38;;;;;;;;;;;;;;;22.19;29.50;95969.69;4992626;28;1238;-72
2023/02/17 10:59:15;;;;;;;;;;;;;;;22.17;29.53;95962.88;4993092;28;789;-72
2023/02/17 11:01:41;;;;;;;;;;;;;;;22.16;29.47;95962.03;4993091;28;890;-72
2023/02/17 11:04:07;;;;;;;;;;;;;;;22.17;29.40;95966.41;4987032;28;1288;-72
2023/02/17 11:06:40;;;;;;;;;;;;;;;22.24;29.59;95961.13;4989722;28;1177;-73
2023/02/17 11:09:16;;;;;;;;;;;;;;;22.20;29.38;95955.34;4992879;28;1979;-73
2023/02/17 11:11:48;;;;;;;;;;;;;;;22.18;29.26;95952.03;5008137;28;1277;-73
2023/02/17 11:14:42;;;;;;;;;;;;;;;22.25;29.48;95953.94;4993056;28;885;-73
2023/02/17 11:17:24;;;;;;;;;;;;;;;22.21;29.43;95951.63;4974250;28;1217;-73
2023/02/17 11:20:13;;;;;;;;;;;;;;;22.28;29.41;95942.84;4993071;28;862;-73
2023/02/17 11:22:43;;;;;;;;;;;;;;;22.25;29.46;95945.91;4987341;28;1344;-73
2023/02/17 11:25:22;;;;;;;;;;;;;;;22.27;29.52;95946.53;4992985;28;856;-73
2023/02/17 11:27:51;;;;;;;;;;;;;;;22.27;29.35;95951.88;4983028;28;1898;-73
2023/02/17 11:30:17;;;;;;;;;;;;;;;22.23;29.50;95944.25;4991558;28;1152;-73
2023/02/17 11:32:43;;;;;;;;;;;;;;;22.25;29.35;95941.38;4992928;28;950;-73
2023/02/17 11:35:37;;;;;;;;;;;;;;;22.28;29.49;95940.16;4992791;28;864;-73
2023/02/17 11:38:10;;;;;;;;;;;;;;;22.30;29.27;95943.47;4978898;28;1199;-73
2023/02/17 11:40:35;;;;;;;;;;;;;;;22.24;29.56;95934.38;4987882;28;1158;-73
2023/02/17 11:43:02;;;;;;;;;;;;;;;22.33;29.33;95938.56;4992924;28;873;-73
2023/02/17 11:45:39;;;;;;;;;;;;;;;22.29;29.51;95931.16;4992576;28;880;-72
2023/02/17 11:48:10;;;;;;;;;;;;;;;22.37;29.39;95931.84;4992479;28;1898;-72
2023/02/17 11:50:38;;;;;;;;;;;;;;;22.36;29.35;95926.66;4981459;28;1448;-72
2023/02/17 11:53:39;;;;;;;;;;;;;;;22.37;29.33;95925.63;4992486;28;907;-72
2023/02/17 11:56:05;;;;;;;;;;;;;;;22.33;29.41;95911.84;4937804;29;1423;-73
2023/02/17 11:58:41;;;;;;;;;;;;;;;22.34;29.16;95916.19;4987490;28;932;-73
2023/02/17 12:01:28;;;;;;;;;;;;;;;22.48;29.19;95914.41;4986163;28;1280;-73
2023/02/17 12:04:09;;;;;;;;;;;;;;;22.40;29.39;95909.22;4995680;28;1370;-74
2023/02/17 12:06:49;;;;;;;;;;;;;;;22.27;29.55;95909.94;4995917;28;892;-73
2023/02/17 12:09:26;;;;;;;;;;;;;;;22.38;29.54;95909.41;4995901;28;1902;-72
2023/02/17 12:12:21;;;;;;;;;;;;;;;22.32;29.29;95901.34;4991202;28;988;-73
2023/02/17 12:15:05;;;;;;;;;;;;;;;22.33;29.55;95901.16;4956347;28;1104;-73
2023/02/17 12:17:48;;;;;;;;;;;;;;;22.42;29.53;95901.81;4995894;28;991;-73
2023/02/17 12:20:14;;;;;;;;;;;;;;;22.40;29.25;95890.50;4996238;28;849;-72
2023/02/17 12:22:43;;;;;;;;;;;;;;;22.37;29.38;95897.06;4995961;28;797;-73
2023/02/17 12:25:25;;;;;;;;;;;;;;;22.40;29.42;95890.50;4985991;28;1046;-74
2023/02/17 12:27:53;;;;;;;;;;;;;;;22.31;29.21;95886.31;4995650;28;1906;-73
2023/02/17 12:30:24;;;;;;;;;;;;;;;22.30;29.48;95884.66;4995682;28;845;-72
2023/02/17 12:32:53;;;;;;;;;;;;;;;22.33;29.41;95873.59;4995606;28;947;-73
2023/02/17 12:35:21;;;;;;;;;;;;;;;22.32;29.49;95877.28;4985948;28;935;-73
2023/02/17 12:37:52;;;;;;;;;;;;;;;22.36;29.47;95870.53;4995307;28;1273;-73
2023/02/17 12:40:23;;;;;;;;;;;;;;;22.44;29.35;95867.69;4995382;28;901;-74
2023/02/17 12:43:11;;;;;;;;;;;;;;;22.43;29.37;95866.88;4995402;28;935;-72
2023/02/17 12:45:41;;;;;;;;;;;;;;;22.45;29.39;95861.31;4995308;28;1356;-73
2023/02/17 12:48:25;;;;;;;;;;;;;;;22.38;29.54;95871.97;4983985;28;2010;-72
2023/02/17 12:50:53;;;;;;;;;;;;;;;22.35;29.28;95861.69;4994053;28;1183;-74
2023/02/17 12:53:25;;;;;;;;;;;;;;;22.37;29.54;95869.50;4995309;28;929;-73
2023/02/17 12:55:54;;;;;;;;;;;;;;;22.37;29.32;95861.47;4995245;28;809;-73
2023/02/17 12:58:22;;;;;;;;;;;;;;;22.39;29.29;95860.25;4985421;28;1054;-73
2023/02/17 13:00:49;;;;;;;;;;;;;;;22.38;29.38;95855.13;4995074;28;888;-73
2023/02/17 13:03:14;;;;;;;;;;;;;;;22.42;29.33;95851.03;4994882;28;1284;-72
2023/02/17 13:05:49;;;;;;;;;;;;;;;22.32;29.75;95845.22;4995050;28;896;-72
2023/02/17 13:08:17;;;;;;;;;;;;;;;22.35;29.45;95851.00;4994338;28;1973;-73
2023/02/17 13:10:43;;;;;;;;;;;;;;;22.34;29.65;95848.50;4984991;28;1129;-73